Main page
METAR-TAF:

METAR-TAF

Airports :

Abdelhafid Boussouf Bou Chekif Airport

Tiaret, Algeria

latitude: 35-15N, longitude: 001-26E, elevation: 1127 m

Current weather observation

The report was made 19 minutes ago, at 23:00 UTC
Wind 5 kt from the Southwest
Temperature 21°C
Humidity 25%
Pressure 1022 hPa
Visibility 10 km or more
no clouds below 1500 m and no cumulonimbus

METAR: DAOB 052300Z 23005KT CAVOK 21/M00 Q1022

Time: 00:19 (23:19 UTC)

Forecast

The report was made 6 hours and 19 minutes ago, at 17:00 UTC
Forecast valid from 05 at 18 UTC to 06 at 18 UTC
Wind 10 kt from the West/Northwest
Visibility 10 km or more
no clouds below 1500 m and no cumulonimbus
Becoming
from 05 at 19 UTC to 05 at 21 UTC
Wind 2 kt from variable directions
Becoming
from 06 at 07 UTC to 06 at 09 UTC
Wind 10 kt from the Northwest

TAF: DAOB 051700Z 0518/0618 30010KT CAVOK BECMG 0519/0521 VRB02KT BECMG 0607/0609 32010KT

Weather observations and forecasts of more than 4000 airports (METAR and TAF reports).

The available stations are represented by yellow and red dots on the map.

Hover mouse over dot to see the name of the station.

Then click to see weather observations and forecasts.

To change the map : click on the green buttons with a black cross to zoom in, on the green button with a dash to zoom out, or on the green arrows for adjacent maps.


METAR-TAF: